sensor_id;sensor_type;location;lat;lon;timestamp;pressure;altitude;pressure_sealevel;temperature;humidity
46944;BME280;32678;43.852;25.952;2023-04-08T00:01:58;101618.88;;;10.73;53.55
46944;BME280;32678;43.852;25.952;2023-04-08T00:06:55;101609.16;;;10.79;53.22
46944;BME280;32678;43.852;25.952;2023-04-08T00:11:52;101611.66;;;10.84;53.10
46944;BME280;32678;43.852;25.952;2023-04-08T00:16:49;101604.81;;;10.75;53.56
46944;BME280;32678;43.852;25.952;2023-04-08T00:21:46;101599.75;;;10.68;54.03
46944;BME280;32678;43.852;25.952;2023-04-08T00:26:43;101604.00;;;10.75;54.38
46944;BME280;32678;43.852;25.952;2023-04-08T00:31:40;101601.00;;;10.49;54.93
46944;BME280;32678;43.852;25.952;2023-04-08T00:36:37;101603.59;;;10.50;54.87
46944;BME280;32678;43.852;25.952;2023-04-08T00:41:35;101598.28;;;10.53;55.08
46944;BME280;32678;43.852;25.952;2023-04-08T00:46:33;101601.78;;;10.05;55.69
46944;BME280;32678;43.852;25.952;2023-04-08T00:51:31;101609.25;;;9.77;56.68
46944;BME280;32678;43.852;25.952;2023-04-08T00:56:29;101609.91;;;9.88;57.13
46944;BME280;32678;43.852;25.952;2023-04-08T01:01:27;101600.59;;;9.70;57.54
46944;BME280;32678;43.852;25.952;2023-04-08T01:06:29;101595.22;;;9.78;57.54
46944;BME280;32678;43.852;25.952;2023-04-08T01:11:27;101590.84;;;9.80;57.53
46944;BME280;32678;43.852;25.952;2023-04-08T01:16:27;101591.56;;;9.89;58.50
46944;BME280;32678;43.852;25.952;2023-04-08T01:21:24;101586.78;;;10.16;58.00
46944;BME280;32678;43.852;25.952;2023-04-08T01:26:23;101595.88;;;10.42;57.64
46944;BME280;32678;43.852;25.952;2023-04-08T01:31:21;101593.25;;;10.41;57.60
46944;BME280;32678;43.852;25.952;2023-04-08T01:36:19;101592.53;;;10.36;57.17
46944;BME280;32678;43.852;25.952;2023-04-08T01:41:17;101595.75;;;10.49;57.36
46944;BME280;32678;43.852;25.952;2023-04-08T01:46:20;101595.56;;;10.58;57.04
46944;BME280;32678;43.852;25.952;2023-04-08T01:51:17;101592.97;;;10.56;56.95
46944;BME280;32678;43.852;25.952;2023-04-08T01:56:15;101581.00;;;10.43;57.01
46944;BME280;32678;43.852;25.952;2023-04-08T02:01:16;101593.81;;;10.60;56.55
46944;BME280;32678;43.852;25.952;2023-04-08T02:06:14;101599.09;;;10.57;56.47
46944;BME280;32678;43.852;25.952;2023-04-08T02:11:11;101589.38;;;10.62;56.52
46944;BME280;32678;43.852;25.952;2023-04-08T02:16:08;101587.63;;;10.62;56.18
46944;BME280;32678;43.852;25.952;2023-04-08T02:21:12;101585.78;;;10.66;56.13
46944;BME280;32678;43.852;25.952;2023-04-08T02:26:11;101581.38;;;10.68;55.92
46944;BME280;32678;43.852;25.952;2023-04-08T02:31:09;101553.78;;;10.50;55.97
46944;BME280;32678;43.852;25.952;2023-04-08T02:36:13;101570.41;;;10.49;56.26
46944;BME280;32678;43.852;25.952;2023-04-08T02:41:11;101550.25;;;10.51;56.23
46944;BME280;32678;43.852;25.952;2023-04-08T02:46:07;101569.44;;;10.55;56.33
46944;BME280;32678;43.852;25.952;2023-04-08T02:51:06;101569.53;;;10.49;56.17
46944;BME280;32678;43.852;25.952;2023-04-08T02:56:03;101575.66;;;10.48;55.86
46944;BME280;32678;43.852;25.952;2023-04-08T03:01:00;101579.44;;;10.33;56.07
46944;BME280;32678;43.852;25.952;2023-04-08T03:05:57;101586.00;;;10.08;56.88
46944;BME280;32678;43.852;25.952;2023-04-08T03:10:54;101589.44;;;10.11;56.69
46944;BME280;32678;43.852;25.952;2023-04-08T03:15:50;101584.97;;;10.18;56.75
46944;BME280;32678;43.852;25.952;2023-04-08T03:20:48;101587.66;;;10.16;56.77
46944;BME280;32678;43.852;25.952;2023-04-08T03:25:45;101589.13;;;10.31;56.55
46944;BME280;32678;43.852;25.952;2023-04-08T03:30:41;101589.94;;;10.31;56.66
46944;BME280;32678;43.852;25.952;2023-04-08T03:35:40;101600.53;;;10.27;56.43
46944;BME280;32678;43.852;25.952;2023-04-08T03:40:38;101603.00;;;10.36;56.09
46944;BME280;32678;43.852;25.952;2023-04-08T03:45:37;101606.50;;;10.35;55.72
46944;BME280;32678;43.852;25.952;2023-04-08T03:50:34;101604.00;;;10.27;55.55
46944;BME280;32678;43.852;25.952;2023-04-08T03:55:40;101604.91;;;10.26;55.13
46944;BME280;32678;43.852;25.952;2023-04-08T04:00:41;101594.03;;;9.97;55.52
46944;BME280;32678;43.852;25.952;2023-04-08T04:05:38;101610.50;;;10.05;55.11
46944;BME280;32678;43.852;25.952;2023-04-08T04:10:34;101612.31;;;10.02;55.36
46944;BME280;32678;43.852;25.952;2023-04-08T04:15:32;101617.84;;;9.83;56.09
46944;BME280;32678;43.852;25.952;2023-04-08T04:20:28;101616.84;;;9.92;56.09
46944;BME280;32678;43.852;25.952;2023-04-08T04:25:25;101624.66;;;9.93;56.63
46944;BME280;32678;43.852;25.952;2023-04-08T04:30:22;101625.44;;;10.00;56.49
46944;BME280;32678;43.852;25.952;2023-04-08T04:35:20;101621.00;;;10.04;56.55
46944;BME280;32678;43.852;25.952;2023-04-08T04:40:16;101630.72;;;9.97;56.69
46944;BME280;32678;43.852;25.952;2023-04-08T04:45:13;101642.03;;;10.00;56.73
46944;BME280;32678;43.852;25.952;2023-04-08T04:50:10;101640.19;;;10.06;56.81
46944;BME280;32678;43.852;25.952;2023-04-08T04:55:08;101647.78;;;10.22;56.49
46944;BME280;32678;43.852;25.952;2023-04-08T05:00:05;101663.69;;;9.53;58.62
46944;BME280;32678;43.852;25.952;2023-04-08T05:05:03;101656.47;;;9.69;58.49
46944;BME280;32678;43.852;25.952;2023-04-08T05:10:00;101655.22;;;9.36;59.79
46944;BME280;32678;43.852;25.952;2023-04-08T05:14:57;101651.53;;;9.49;59.86
46944;BME280;32678;43.852;25.952;2023-04-08T05:19:54;101644.06;;;9.22;60.66
46944;BME280;32678;43.852;25.952;2023-04-08T05:24:51;101656.69;;;9.57;59.46
46944;BME280;32678;43.852;25.952;2023-04-08T05:29:48;101653.06;;;9.66;59.49
46944;BME280;32678;43.852;25.952;2023-04-08T05:34:47;101647.81;;;9.03;61.81
46944;BME280;32678;43.852;25.952;2023-04-08T05:39:44;101623.13;;;9.22;61.53
46944;BME280;32678;43.852;25.952;2023-04-08T05:44:42;101627.94;;;8.88;62.90
46944;BME280;32678;43.852;25.952;2023-04-08T05:49:39;101650.31;;;9.13;63.24
46944;BME280;32678;43.852;25.952;2023-04-08T05:54:36;101660.19;;;8.89;64.70
46944;BME280;32678;43.852;25.952;2023-04-08T05:59:33;101659.16;;;9.03;64.76
46944;BME280;32678;43.852;25.952;2023-04-08T06:04:29;101664.50;;;8.90;65.79
46944;BME280;32678;43.852;25.952;2023-04-08T06:09:26;101629.06;;;8.66;66.48
46944;BME280;32678;43.852;25.952;2023-04-08T06:14:23;101666.06;;;9.07;65.26
46944;BME280;32678;43.852;25.952;2023-04-08T06:19:26;101668.81;;;8.95;65.60
46944;BME280;32678;43.852;25.952;2023-04-08T06:24:24;101668.03;;;9.54;62.67
46944;BME280;32678;43.852;25.952;2023-04-08T06:29:21;101660.47;;;9.94;61.41
46944;BME280;32678;43.852;25.952;2023-04-08T06:34:21;101662.94;;;9.47;62.67
46944;BME280;32678;43.852;25.952;2023-04-08T06:39:18;101661.66;;;9.11;64.37
46944;BME280;32678;43.852;25.952;2023-04-08T06:44:16;101668.25;;;9.41;63.26
46944;BME280;32678;43.852;25.952;2023-04-08T06:49:13;101665.19;;;9.71;62.56
46944;BME280;32678;43.852;25.952;2023-04-08T06:54:24;101671.72;;;9.99;60.18
46944;BME280;32678;43.852;25.952;2023-04-08T06:59:21;101662.75;;;10.13;58.83
46944;BME280;32678;43.852;25.952;2023-04-08T07:04:17;101660.22;;;10.10;59.67
46944;BME280;32678;43.852;25.952;2023-04-08T07:09:14;101664.44;;;10.21;58.92
46944;BME280;32678;43.852;25.952;2023-04-08T07:14:12;101657.81;;;10.48;58.02
46944;BME280;32678;43.852;25.952;2023-04-08T07:19:08;101658.00;;;10.37;58.50
46944;BME280;32678;43.852;25.952;2023-04-08T07:24:05;101654.28;;;9.98;60.23
46944;BME280;32678;43.852;25.952;2023-04-08T07:29:02;101667.06;;;10.18;59.97
46944;BME280;32678;43.852;25.952;2023-04-08T07:34:00;101651.25;;;10.26;59.66
46944;BME280;32678;43.852;25.952;2023-04-08T07:38:59;101679.72;;;9.92;61.38
46944;BME280;32678;43.852;25.952;2023-04-08T07:43:55;101678.78;;;9.96;60.60
46944;BME280;32678;43.852;25.952;2023-04-08T07:48:56;101690.00;;;10.02;61.00
46944;BME280;32678;43.852;25.952;2023-04-08T07:53:56;101684.53;;;10.21;61.04
46944;BME280;32678;43.852;25.952;2023-04-08T07:58:53;101679.81;;;9.84;62.19
46944;BME280;32678;43.852;25.952;2023-04-08T08:03:50;101685.78;;;9.94;62.28
46944;BME280;32678;43.852;25.952;2023-04-08T08:08:49;101678.94;;;9.85;62.66
46944;BME280;32678;43.852;25.952;2023-04-08T08:13:46;101681.28;;;10.02;62.94
46944;BME280;32678;43.852;25.952;2023-04-08T08:18:43;101678.38;;;10.22;62.15
46944;BME280;32678;43.852;25.952;2023-04-08T08:23:39;101680.09;;;10.24;62.51
46944;BME280;32678;43.852;25.952;2023-04-08T08:28:36;101680.25;;;10.12;62.81
46944;BME280;32678;43.852;25.952;2023-04-08T08:33:34;101677.63;;;10.64;61.88
46944;BME280;32678;43.852;25.952;2023-04-08T08:38:31;101648.44;;;10.81;60.40
46944;BME280;32678;43.852;25.952;2023-04-08T08:43:30;101677.47;;;10.72;61.57
46944;BME280;32678;43.852;25.952;2023-04-08T08:48:28;101680.97;;;10.71;61.04
46944;BME280;32678;43.852;25.952;2023-04-08T08:53:48;101677.25;;;10.84;61.29
46944;BME280;32678;43.852;25.952;2023-04-08T08:58:47;101680.31;;;11.06;62.12
46944;BME280;32678;43.852;25.952;2023-04-08T09:04:13;101682.25;;;10.50;64.69
46944;BME280;32678;43.852;25.952;2023-04-08T09:09:37;101675.22;;;10.51;65.93
46944;BME280;32678;43.852;25.952;2023-04-08T09:15:12;101677.41;;;10.27;67.30
46944;BME280;32678;43.852;25.952;2023-04-08T09:20:15;101680.78;;;10.35;66.81
46944;BME280;32678;43.852;25.952;2023-04-08T09:25:22;101681.31;;;10.54;66.59
46944;BME280;32678;43.852;25.952;2023-04-08T09:30:20;101682.19;;;10.55;66.65
46944;BME280;32678;43.852;25.952;2023-04-08T09:35:19;101679.28;;;10.70;65.66
46944;BME280;32678;43.852;25.952;2023-04-08T09:40:16;101686.09;;;10.78;65.05
46944;BME280;32678;43.852;25.952;2023-04-08T09:45:15;101678.91;;;10.90;65.52
46944;BME280;32678;43.852;25.952;2023-04-08T09:50:11;101678.91;;;10.88;64.66
46944;BME280;32678;43.852;25.952;2023-04-08T09:55:08;101668.50;;;10.83;64.39
46944;BME280;32678;43.852;25.952;2023-04-08T10:00:11;101672.63;;;10.97;65.31
46944;BME280;32678;43.852;25.952;2023-04-08T10:05:12;101676.66;;;11.13;64.21
46944;BME280;32678;43.852;25.952;2023-04-08T10:10:09;101685.22;;;11.22;63.05
46944;BME280;32678;43.852;25.952;2023-04-08T10:20:43;101671.59;;;11.44;63.33
46944;BME280;32678;43.852;25.952;2023-04-08T10:25:41;101670.50;;;11.54;63.58
46944;BME280;32678;43.852;25.952;2023-04-08T10:30:41;101673.28;;;11.48;63.22
46944;BME280;32678;43.852;25.952;2023-04-08T10:35:40;101662.69;;;11.52;61.75
46944;BME280;32678;43.852;25.952;2023-04-08T10:40:39;101657.00;;;11.70;59.93
46944;BME280;32678;43.852;25.952;2023-04-08T10:45:37;101657.78;;;11.77;60.35
46944;BME280;32678;43.852;25.952;2023-04-08T10:50:34;101649.88;;;11.77;60.68
46944;BME280;32678;43.852;25.952;2023-04-08T10:55:31;101654.06;;;11.84;59.98
46944;BME280;32678;43.852;25.952;2023-04-08T11:00:31;101651.56;;;12.15;58.64
46944;BME280;32678;43.852;25.952;2023-04-08T11:05:28;101649.47;;;11.94;57.86
46944;BME280;32678;43.852;25.952;2023-04-08T11:10:26;101649.09;;;12.09;59.15
46944;BME280;32678;43.852;25.952;2023-04-08T11:15:23;101641.47;;;11.98;58.67
46944;BME280;32678;43.852;25.952;2023-04-08T11:25:42;101627.56;;;12.29;57.55
46944;BME280;32678;43.852;25.952;2023-04-08T11:30:47;101608.44;;;12.22;58.21
46944;BME280;32678;43.852;25.952;2023-04-08T11:35:44;101627.03;;;12.48;55.64
46944;BME280;32678;43.852;25.952;2023-04-08T11:40:51;101620.03;;;12.47;57.48
46944;BME280;32678;43.852;25.952;2023-04-08T11:45:48;101612.06;;;12.50;57.29
46944;BME280;32678;43.852;25.952;2023-04-08T11:50:45;101610.09;;;12.58;56.02
46944;BME280;32678;43.852;25.952;2023-04-08T11:55:42;101600.16;;;12.68;55.31
46944;BME280;32678;43.852;25.952;2023-04-08T12:00:41;101596.25;;;12.83;55.97
46944;BME280;32678;43.852;25.952;2023-04-08T12:05:40;101585.63;;;12.86;54.78
46944;BME280;32678;43.852;25.952;2023-04-08T12:10:37;101582.53;;;12.72;53.36
46944;BME280;32678;43.852;25.952;2023-04-08T12:15:34;101561.91;;;12.56;52.64
46944;BME280;32678;43.852;25.952;2023-04-08T12:20:31;101578.16;;;13.00;52.06
46944;BME280;32678;43.852;25.952;2023-04-08T12:25:28;101590.53;;;13.27;51.41
46944;BME280;32678;43.852;25.952;2023-04-08T12:30:26;101590.06;;;13.42;52.07
46944;BME280;32678;43.852;25.952;2023-04-08T12:35:23;101578.59;;;13.16;53.19
46944;BME280;32678;43.852;25.952;2023-04-08T12:40:20;101584.22;;;13.03;54.54
46944;BME280;32678;43.852;25.952;2023-04-08T12:45:17;101588.59;;;13.05;53.76
46944;BME280;32678;43.852;25.952;2023-04-08T12:50:14;101580.78;;;13.00;52.67
46944;BME280;32678;43.852;25.952;2023-04-08T12:55:10;101586.06;;;13.00;52.64
46944;BME280;32678;43.852;25.952;2023-04-08T13:00:09;101575.19;;;13.14;53.04
46944;BME280;32678;43.852;25.952;2023-04-08T13:05:06;101577.13;;;13.06;54.54
46944;BME280;32678;43.852;25.952;2023-04-08T13:10:03;101575.75;;;13.23;53.78
46944;BME280;32678;43.852;25.952;2023-04-08T13:15:02;101577.22;;;13.32;53.10
46944;BME280;32678;43.852;25.952;2023-04-08T13:20:00;101570.53;;;13.22;52.74
46944;BME280;32678;43.852;25.952;2023-04-08T13:24:57;101572.13;;;13.27;52.90
46944;BME280;32678;43.852;25.952;2023-04-08T13:29:54;101565.06;;;13.28;53.37
46944;BME280;32678;43.852;25.952;2023-04-08T13:34:51;101563.59;;;13.19;53.56
46944;BME280;32678;43.852;25.952;2023-04-08T13:39:49;101566.66;;;13.33;53.42
46944;BME280;32678;43.852;25.952;2023-04-08T13:44:45;101568.28;;;13.37;52.76
46944;BME280;32678;43.852;25.952;2023-04-08T13:49:42;101570.28;;;13.29;52.75
46944;BME280;32678;43.852;25.952;2023-04-08T13:54:39;101576.31;;;13.61;51.94
46944;BME280;32678;43.852;25.952;2023-04-08T13:59:37;101575.03;;;13.99;53.05
46944;BME280;32678;43.852;25.952;2023-04-08T14:04:36;101579.06;;;13.58;55.83
46944;BME280;32678;43.852;25.952;2023-04-08T14:09:32;101583.06;;;13.41;59.63
46944;BME280;32678;43.852;25.952;2023-04-08T14:14:30;101577.53;;;12.92;63.32
46944;BME280;32678;43.852;25.952;2023-04-08T14:19:28;101571.00;;;12.76;65.19
46944;BME280;32678;43.852;25.952;2023-04-08T14:24:24;101576.81;;;12.87;66.48
46944;BME280;32678;43.852;25.952;2023-04-08T14:29:21;101562.91;;;13.13;67.10
46944;BME280;32678;43.852;25.952;2023-04-08T14:34:18;101569.09;;;12.81;69.01
46944;BME280;32678;43.852;25.952;2023-04-08T14:39:16;101568.41;;;12.43;69.23
46944;BME280;32678;43.852;25.952;2023-04-08T14:44:22;101564.75;;;12.80;67.39
46944;BME280;32678;43.852;25.952;2023-04-08T14:49:21;101560.25;;;12.83;69.25
46944;BME280;32678;43.852;25.952;2023-04-08T14:54:19;101564.94;;;12.74;68.76
46944;BME280;32678;43.852;25.952;2023-04-08T14:59:16;101548.69;;;12.89;67.73
46944;BME280;32678;43.852;25.952;2023-04-08T15:04:13;101547.13;;;12.82;67.04
46944;BME280;32678;43.852;25.952;2023-04-08T15:09:09;101553.78;;;12.95;64.80
46944;BME280;32678;43.852;25.952;2023-04-08T15:14:07;101550.66;;;13.12;63.28
46944;BME280;32678;43.852;25.952;2023-04-08T15:19:03;101539.13;;;13.16;62.38
46944;BME280;32678;43.852;25.952;2023-04-08T15:24:02;101547.88;;;13.16;62.25
46944;BME280;32678;43.852;25.952;2023-04-08T15:29:02;101545.06;;;13.22;62.18
46944;BME280;32678;43.852;25.952;2023-04-08T15:33:59;101532.56;;;13.29;61.90
46944;BME280;32678;43.852;25.952;2023-04-08T15:38:57;101541.03;;;13.38;62.42
46944;BME280;32678;43.852;25.952;2023-04-08T15:43:54;101537.53;;;13.38;62.95
46944;BME280;32678;43.852;25.952;2023-04-08T15:48:51;101537.94;;;13.52;62.92
46944;BME280;32678;43.852;25.952;2023-04-08T15:53:49;101536.78;;;13.87;61.46
46944;BME280;32678;43.852;25.952;2023-04-08T15:58:46;101537.69;;;13.60;61.68
46944;BME280;32678;43.852;25.952;2023-04-08T16:03:42;101541.94;;;13.37;62.01
46944;BME280;32678;43.852;25.952;2023-04-08T16:08:42;101539.50;;;13.02;63.45
46944;BME280;32678;43.852;25.952;2023-04-08T16:13:40;101536.91;;;13.00;63.25
46944;BME280;32678;43.852;25.952;2023-04-08T16:18:37;101532.97;;;12.86;63.90
46944;BME280;32678;43.852;25.952;2023-04-08T16:23:36;101533.38;;;13.01;63.35
46944;BME280;32678;43.852;25.952;2023-04-08T16:28:33;101532.50;;;12.42;66.56
46944;BME280;32678;43.852;25.952;2023-04-08T16:33:30;101522.00;;;12.72;65.20
46944;BME280;32678;43.852;25.952;2023-04-08T16:38:27;101519.03;;;12.84;65.02
46944;BME280;32678;43.852;25.952;2023-04-08T16:43:24;101540.16;;;12.81;66.06
46944;BME280;32678;43.852;25.952;2023-04-08T16:48:20;101534.22;;;12.74;65.76
46944;BME280;32678;43.852;25.952;2023-04-08T16:53:18;101540.16;;;12.81;64.88
46944;BME280;32678;43.852;25.952;2023-04-08T16:58:15;101541.28;;;12.41;65.78
46944;BME280;32678;43.852;25.952;2023-04-08T17:03:12;101530.78;;;12.10;65.95
46944;BME280;32678;43.852;25.952;2023-04-08T17:08:09;101545.78;;;12.38;65.04
46944;BME280;32678;43.852;25.952;2023-04-08T17:13:06;101543.31;;;12.32;64.32
46944;BME280;32678;43.852;25.952;2023-04-08T17:18:04;101551.09;;;12.36;63.40
46944;BME280;32678;43.852;25.952;2023-04-08T17:23:02;101582.59;;;12.38;63.27
46944;BME280;32678;43.852;25.952;2023-04-08T17:27:58;101587.34;;;12.25;63.44
46944;BME280;32678;43.852;25.952;2023-04-08T17:32:56;101603.19;;;12.54;62.88
46944;BME280;32678;43.852;25.952;2023-04-08T17:37:53;101599.97;;;12.11;64.56
46944;BME280;32678;43.852;25.952;2023-04-08T17:42:49;101600.66;;;12.18;65.15
46944;BME280;32678;43.852;25.952;2023-04-08T17:47:46;101606.75;;;12.20;65.59
46944;BME280;32678;43.852;25.952;2023-04-08T17:52:44;101623.56;;;11.79;67.73
46944;BME280;32678;43.852;25.952;2023-04-08T17:57:41;101619.66;;;11.95;67.57
46944;BME280;32678;43.852;25.952;2023-04-08T18:02:37;101629.41;;;11.91;67.66
46944;BME280;32678;43.852;25.952;2023-04-08T18:07:39;101634.81;;;11.84;68.44
46944;BME280;32678;43.852;25.952;2023-04-08T18:12:37;101637.94;;;11.99;67.89
46944;BME280;32678;43.852;25.952;2023-04-08T18:17:35;101648.75;;;12.23;67.58
46944;BME280;32678;43.852;25.952;2023-04-08T18:22:31;101653.34;;;12.14;68.35
46944;BME280;32678;43.852;25.952;2023-04-08T18:27:28;101654.28;;;12.46;67.56
46944;BME280;32678;43.852;25.952;2023-04-08T18:32:25;101663.19;;;12.40;67.81
46944;BME280;32678;43.852;25.952;2023-04-08T18:37:22;101661.81;;;12.59;67.33
46944;BME280;32678;43.852;25.952;2023-04-08T18:42:19;101668.53;;;12.70;67.25
46944;BME280;32678;43.852;25.952;2023-04-08T18:47:15;101670.81;;;12.82;66.84
46944;BME280;32678;43.852;25.952;2023-04-08T18:52:13;101678.13;;;12.71;66.88
46944;BME280;32678;43.852;25.952;2023-04-08T18:57:10;101627.16;;;12.44;66.52
46944;BME280;32678;43.852;25.952;2023-04-08T19:02:06;101672.31;;;12.59;66.24
46944;BME280;32678;43.852;25.952;2023-04-08T19:07:03;101682.78;;;12.61;65.83
46944;BME280;32678;43.852;25.952;2023-04-08T19:12:01;101689.94;;;12.22;67.03
46944;BME280;32678;43.852;25.952;2023-04-08T19:16:57;101683.53;;;12.32;66.90
46944;BME280;32678;43.852;25.952;2023-04-08T19:21:54;101682.78;;;12.29;67.11
46944;BME280;32678;43.852;25.952;2023-04-08T19:26:51;101694.94;;;12.33;67.18
46944;BME280;32678;43.852;25.952;2023-04-08T19:31:48;101689.00;;;12.26;67.50
46944;BME280;32678;43.852;25.952;2023-04-08T19:36:45;101663.63;;;12.24;67.02
46944;BME280;32678;43.852;25.952;2023-04-08T19:41:42;101682.34;;;12.45;66.34
46944;BME280;32678;43.852;25.952;2023-04-08T19:46:39;101686.25;;;12.31;66.93
46944;BME280;32678;43.852;25.952;2023-04-08T19:51:36;101682.97;;;12.21;67.36
46944;BME280;32678;43.852;25.952;2023-04-08T19:56:33;101678.63;;;12.20;67.26
46944;BME280;32678;43.852;25.952;2023-04-08T20:01:30;101680.75;;;12.04;67.85
46944;BME280;32678;43.852;25.952;2023-04-08T20:06:31;101683.50;;;11.98;67.98
46944;BME280;32678;43.852;25.952;2023-04-08T20:11:32;101683.00;;;11.83;68.48
46944;BME280;32678;43.852;25.952;2023-04-08T20:16:29;101687.03;;;11.97;67.87
46944;BME280;32678;43.852;25.952;2023-04-08T20:21:27;101683.09;;;11.80;68.46
46944;BME280;32678;43.852;25.952;2023-04-08T20:26:23;101687.63;;;12.10;67.31
46944;BME280;32678;43.852;25.952;2023-04-08T20:31:24;101668.69;;;11.96;67.33
46944;BME280;32678;43.852;25.952;2023-04-08T20:36:24;101686.03;;;12.03;67.53
46944;BME280;32678;43.852;25.952;2023-04-08T20:41:23;101688.97;;;11.91;67.69
46944;BME280;32678;43.852;25.952;2023-04-08T20:46:20;101683.28;;;11.70;69.60
46944;BME280;32678;43.852;25.952;2023-04-08T20:51:19;101694.13;;;11.95;68.79
46944;BME280;32678;43.852;25.952;2023-04-08T20:56:16;101695.41;;;12.14;68.25
46944;BME280;32678;43.852;25.952;2023-04-08T21:01:13;101690.88;;;12.21;67.46
46944;BME280;32678;43.852;25.952;2023-04-08T21:06:14;101695.53;;;12.08;67.88
46944;BME280;32678;43.852;25.952;2023-04-08T21:11:18;101696.16;;;12.20;67.77
46944;BME280;32678;43.852;25.952;2023-04-08T21:16:14;101696.94;;;12.23;67.66
46944;BME280;32678;43.852;25.952;2023-04-08T21:21:11;101699.25;;;12.35;67.47
46944;BME280;32678;43.852;25.952;2023-04-08T21:26:13;101685.03;;;12.42;66.81
46944;BME280;32678;43.852;25.952;2023-04-08T21:31:15;101700.53;;;12.54;65.98
46944;BME280;32678;43.852;25.952;2023-04-08T21:36:14;101699.78;;;12.49;65.13
46944;BME280;32678;43.852;25.952;2023-04-08T21:41:11;101690.28;;;12.44;64.96
46944;BME280;32678;43.852;25.952;2023-04-08T21:46:08;101692.16;;;12.39;64.75
46944;BME280;32678;43.852;25.952;2023-04-08T21:51:14;101688.91;;;12.28;65.31
46944;BME280;32678;43.852;25.952;2023-04-08T21:56:16;101684.16;;;12.08;65.61
46944;BME280;32678;43.852;25.952;2023-04-08T22:01:13;101690.28;;;12.08;65.85
46944;BME280;32678;43.852;25.952;2023-04-08T22:06:10;101692.88;;;12.10;65.95
46944;BME280;32678;43.852;25.952;2023-04-08T22:11:21;101693.91;;;12.03;65.68
46944;BME280;32678;43.852;25.952;2023-04-08T22:16:19;101694.78;;;12.03;65.86
46944;BME280;32678;43.852;25.952;2023-04-08T22:21:19;101691.13;;;12.10;65.77
46944;BME280;32678;43.852;25.952;2023-04-08T22:26:16;101695.44;;;12.13;65.65
46944;BME280;32678;43.852;25.952;2023-04-08T22:31:13;101694.03;;;11.98;66.24
46944;BME280;32678;43.852;25.952;2023-04-08T22:36:10;101697.06;;;11.82;66.79
46944;BME280;32678;43.852;25.952;2023-04-08T22:41:14;101696.53;;;11.66;69.98
46944;BME280;32678;43.852;25.952;2023-04-08T22:46:11;101695.34;;;11.79;69.62
46944;BME280;32678;43.852;25.952;2023-04-08T22:51:09;101697.84;;;11.87;69.81
46944;BME280;32678;43.852;25.952;2023-04-08T22:56:07;101702.88;;;11.96;69.65
46944;BME280;32678;43.852;25.952;2023-04-08T23:01:09;101698.38;;;12.01;69.63
46944;BME280;32678;43.852;25.952;2023-04-08T23:06:05;101694.03;;;11.98;69.60
46944;BME280;32678;43.852;25.952;2023-04-08T23:11:03;101699.34;;;11.57;69.52
46944;BME280;32678;43.852;25.952;2023-04-08T23:16:00;101692.53;;;11.48;70.01
46944;BME280;32678;43.852;25.952;2023-04-08T23:20:57;101686.94;;;11.63;69.26
46944;BME280;32678;43.852;25.952;2023-04-08T23:25:54;101680.91;;;11.58;68.80
46944;BME280;32678;43.852;25.952;2023-04-08T23:30:52;101673.03;;;11.58;68.50
46944;BME280;32678;43.852;25.952;2023-04-08T23:35:48;101675.94;;;11.86;67.57
46944;BME280;32678;43.852;25.952;2023-04-08T23:40:45;101676.22;;;11.74;67.20
46944;BME280;32678;43.852;25.952;2023-04-08T23:45:42;101677.44;;;11.58;67.97
46944;BME280;32678;43.852;25.952;2023-04-08T23:50:39;101671.84;;;11.73;67.74
46944;BME280;32678;43.852;25.952;2023-04-08T23:55:36;101667.47;;;11.73;67.81
